Time;durP1;ratioP1;P1;durP2;ratioP2;P2;SDS_P1;SDS_P2;PMS_P1;PMS_P2;Temp;Humidity;BMP_temperature;BMP_pressure;BME280_temperature;BME280_humidity;BME280_pressure;Samples;Min_cycle;Max_cycle;Signal;HPM_P1;HPM_P2
2023/10/06 00:00:47;;;;;;;3.47;1.90;;;7.10;99.90;;;;;;4976562;28;20042;-33
2023/10/06 00:03:14;;;;;;;3.47;2.00;;;7.00;99.90;;;;;;4974567;28;20031;-33
2023/10/06 00:05:40;;;;;;;3.95;2.33;;;7.00;99.90;;;;;;4972803;28;20033;-35
2023/10/06 00:08:16;;;;;;;2.83;2.28;;;6.90;99.90;;;;;;4977301;28;20769;-34
2023/10/06 00:10:45;;;;;;;2.90;2.30;;;7.00;99.90;;;;;;4977806;28;20101;-32
2023/10/06 00:13:18;;;;;;;4.18;2.50;;;7.10;99.90;;;;;;4978527;28;20491;-32
2023/10/06 00:15:45;;;;;;;4.38;2.17;;;7.10;99.90;;;;;;4975957;28;20488;-33
2023/10/06 00:18:26;;;;;;;3.13;1.85;;;7.00;99.90;;;;;;4976885;28;20129;-32
2023/10/06 00:20:56;;;;;;;3.65;2.20;;;6.90;99.90;;;;;;4979000;28;20118;-34
2023/10/06 00:23:23;;;;;;;2.90;2.30;;;6.90;99.90;;;;;;4979146;28;20677;-31
2023/10/06 00:25:54;;;;;;;2.17;1.80;;;6.70;99.90;;;;;;4984485;28;20038;-32
2023/10/06 00:28:25;;;;;;;1.60;1.50;;;6.60;99.90;;;;;;4983180;28;20033;-33
2023/10/06 00:30:58;;;;;;;2.40;1.70;;;6.60;99.90;;;;;;4974173;28;20403;-33
2023/10/06 00:33:27;;;;;;;2.85;1.90;;;6.60;99.90;;;;;;4980192;28;20036;-33
2023/10/06 00:35:53;;;;;;;3.28;1.90;;;6.60;99.90;;;;;;4980522;28;20034;-34
2023/10/06 00:38:19;;;;;;;2.20;1.90;;;6.70;99.90;;;;;;4981057;28;20495;-32
2023/10/06 00:40:52;;;;;;;2.55;1.80;;;6.70;99.90;;;;;;4982957;28;20117;-41
2023/10/06 00:43:43;;;;;;;3.38;2.13;;;6.70;99.90;;;;;;4977661;28;20118;-39
2023/10/06 00:46:10;;;;;;;3.45;2.50;;;6.60;99.90;;;;;;4977382;28;20034;-42
2023/10/06 00:48:40;;;;;;;3.25;2.13;;;6.60;99.90;;;;;;4979191;28;20226;-40
2023/10/06 00:51:27;;;;;;;5.00;3.33;;;6.60;99.90;;;;;;4979762;28;20039;-41
2023/10/06 00:53:58;;;;;;;3.75;2.63;;;6.60;99.90;;;;;;4975796;28;20328;-39
2023/10/06 00:56:24;;;;;;;3.15;2.40;;;6.60;99.90;;;;;;4977078;28;20042;-38
2023/10/06 00:58:50;;;;;;;9.95;2.00;;;6.50;99.90;;;;;;4977575;28;20042;-40
2023/10/06 01:01:19;;;;;;;3.35;2.22;;;6.30;99.90;;;;;;4979728;28;20038;-35
2023/10/06 01:04:00;;;;;;;2.55;1.98;;;6.10;99.90;;;;;;4972657;28;20482;-39
2023/10/06 01:06:33;;;;;;;7.00;2.70;;;6.20;99.90;;;;;;4982489;28;20034;-38
2023/10/06 01:09:14;;;;;;;4.40;2.78;;;6.30;99.90;;;;;;4822844;28;20687;-37
2023/10/06 01:11:46;;;;;;;4.00;2.30;;;6.40;99.90;;;;;;4978858;28;20034;-34
2023/10/06 01:14:33;;;;;;;3.85;2.15;;;6.40;99.90;;;;;;4987123;28;20041;-39
2023/10/06 01:17:14;;;;;;;4.05;2.63;;;6.40;99.90;;;;;;4982067;28;20231;-39
2023/10/06 01:19:53;;;;;;;4.05;2.20;;;6.40;99.90;;;;;;4980572;28;20027;-36
2023/10/06 01:22:25;;;;;;;3.97;2.22;;;6.20;99.90;;;;;;4987961;28;20065;-39
2023/10/06 01:24:53;;;;;;;3.83;2.30;;;6.20;99.90;;;;;;4984776;28;20061;-40
2023/10/06 01:27:19;;;;;;;3.08;1.95;;;6.20;99.90;;;;;;4977025;28;20503;-39
2023/10/06 01:29:52;;;;;;;2.53;1.88;;;6.10;99.90;;;;;;4981509;28;20042;-38
2023/10/06 01:32:19;;;;;;;2.10;1.67;;;6.00;99.90;;;;;;4985841;28;20084;-36
2023/10/06 01:34:45;;;;;;;3.92;2.65;;;5.90;99.90;;;;;;4983552;28;20173;-40
2023/10/06 01:37:11;;;;;;;3.78;1.92;;;5.90;99.90;;;;;;4978078;28;20121;-40
2023/10/06 01:39:38;;;;;;;3.45;1.88;;;5.90;99.90;;;;;;4978791;28;20041;-39
2023/10/06 01:42:07;;;;;;;2.47;1.95;;;6.00;99.90;;;;;;4973296;28;20558;-38
2023/10/06 01:44:34;;;;;;;4.65;2.67;;;6.10;99.90;;;;;;4976914;28;20035;-39
2023/10/06 01:47:01;;;;;;;5.37;2.30;;;6.10;99.90;;;;;;4982789;28;20043;-40
2023/10/06 01:49:27;;;;;;;4.28;2.45;;;6.00;99.90;;;;;;4978293;28;20105;-34
2023/10/06 01:51:53;;;;;;;3.42;2.42;;;6.00;99.90;;;;;;4977833;28;20125;-39
2023/10/06 01:54:20;;;;;;;3.00;2.10;;;5.90;99.90;;;;;;4979635;28;20102;-39
2023/10/06 01:56:46;;;;;;;3.40;2.40;;;5.90;99.90;;;;;;4975436;28;20109;-40
2023/10/06 01:59:16;;;;;;;4.65;2.90;;;5.80;99.90;;;;;;4976374;28;20031;-39
2023/10/06 02:01:42;;;;;;;6.15;2.90;;;5.90;99.90;;;;;;4972424;28;20047;-36
2023/10/06 02:04:14;;;;;;;4.65;2.50;;;5.90;99.90;;;;;;4978200;28;20033;-40
2023/10/06 02:06:46;;;;;;;3.45;2.35;;;5.90;99.90;;;;;;4971442;28;20578;-37
2023/10/06 02:09:25;;;;;;;2.97;2.30;;;5.80;99.90;;;;;;4976979;28;20420;-40
2023/10/06 02:11:50;;;;;;;5.80;3.00;;;5.80;99.90;;;;;;4981586;28;20034;-39
2023/10/06 02:14:17;;;;;;;4.00;2.30;;;5.70;99.90;;;;;;4972723;28;20031;-36
2023/10/06 02:16:46;;;;;;;2.90;2.17;;;5.70;99.90;;;;;;4967853;28;20119;-36
2023/10/06 02:19:16;;;;;;;3.78;2.70;;;5.60;99.90;;;;;;4969577;28;20061;-39
2023/10/06 02:21:42;;;;;;;3.72;2.40;;;5.70;99.90;;;;;;4967810;28;20045;-38
2023/10/06 02:24:08;;;;;;;3.25;2.20;;;5.60;99.90;;;;;;4974126;28;20034;-39
2023/10/06 02:26:38;;;;;;;4.45;2.80;;;5.60;99.90;;;;;;4976483;28;20039;-35
2023/10/06 02:29:11;;;;;;;3.17;2.13;;;5.70;99.90;;;;;;4974939;28;20034;-40
2023/10/06 02:31:37;;;;;;;4.03;2.28;;;5.60;99.90;;;;;;4969037;28;20039;-39
2023/10/06 02:34:04;;;;;;;2.40;2.20;;;5.50;99.90;;;;;;4973212;28;20679;-39
2023/10/06 02:36:31;;;;;;;2.45;2.00;;;5.40;99.90;;;;;;4969147;28;20049;-39
2023/10/06 02:38:57;;;;;;;4.05;2.42;;;5.30;99.90;;;;;;4968585;28;20562;-40
2023/10/06 02:41:29;;;;;;;3.85;2.35;;;5.40;99.90;;;;;;4974590;28;20046;-36
2023/10/06 02:43:57;;;;;;;2.60;1.85;;;5.40;99.90;;;;;;4977638;28;20030;-37
2023/10/06 02:46:25;;;;;;;2.00;1.80;;;5.40;99.90;;;;;;4976512;28;20372;-40
2023/10/06 02:48:51;;;;;;;3.45;2.05;;;5.40;99.90;;;;;;4979813;28;20023;-40
2023/10/06 02:51:29;;;;;;;1.85;1.65;;;5.40;99.90;;;;;;4976227;28;20049;-38
2023/10/06 02:56:41;;;;;;;3.72;2.33;;;5.50;99.90;;;;;;4975100;28;19933;-35
2023/10/06 02:59:26;;;;;;;8.13;2.72;;;5.50;99.90;;;;;;4977120;28;20081;-40
2023/10/06 03:01:57;;;;;;;4.82;2.47;;;5.50;99.90;;;;;;4975340;28;20117;-39
2023/10/06 03:04:27;;;;;;;2.30;2.10;;;5.50;99.90;;;;;;4973438;28;20061;-40
2023/10/06 03:06:58;;;;;;;2.97;2.17;;;5.50;99.90;;;;;;4976194;28;20125;-39
2023/10/06 03:09:36;;;;;;;2.20;1.92;;;5.50;99.90;;;;;;4977565;28;20049;-38
2023/10/06 03:12:11;;;;;;;3.25;1.95;;;5.50;99.90;;;;;;4976358;28;20038;-36
2023/10/06 03:14:39;;;;;;;2.95;1.90;;;5.50;99.90;;;;;;4970523;28;20129;-38
2023/10/06 03:17:06;;;;;;;2.85;2.10;;;5.50;99.90;;;;;;4981477;28;20026;-37
2023/10/06 03:19:33;;;;;;;2.78;2.38;;;5.50;99.90;;;;;;4977030;28;20062;-40
2023/10/06 03:22:04;;;;;;;3.75;2.72;;;5.50;99.90;;;;;;4994057;28;20045;-35
2023/10/06 03:24:34;;;;;;;3.70;2.20;;;5.40;99.90;;;;;;4987165;28;20031;-33
2023/10/06 03:27:07;;;;;;;5.30;2.58;;;5.30;99.90;;;;;;4984696;28;20391;-32
2023/10/06 03:29:46;;;;;;;5.20;2.67;;;5.40;99.90;;;;;;4976761;28;20034;-33
2023/10/06 03:32:13;;;;;;;2.80;2.17;;;5.40;99.90;;;;;;4971099;28;20042;-33
2023/10/06 03:34:39;;;;;;;2.28;2.08;;;5.30;99.90;;;;;;4983955;28;20473;-35
2023/10/06 03:37:05;;;;;;;1.98;1.77;;;5.30;99.90;;;;;;4971839;28;20041;-35
2023/10/06 03:39:38;;;;;;;2.35;1.83;;;5.30;99.90;;;;;;4972551;28;20437;-38
2023/10/06 03:42:06;;;;;;;3.47;1.95;;;5.30;99.90;;;;;;4971449;28;20035;-32
2023/10/06 03:44:31;;;;;;;2.15;2.03;;;5.30;99.90;;;;;;4971621;28;20093;-32
2023/10/06 03:47:00;;;;;;;3.65;2.38;;;5.20;99.90;;;;;;4976193;28;20396;-34
2023/10/06 03:49:27;;;;;;;4.03;1.98;;;5.20;99.90;;;;;;4974214;28;20526;-38
2023/10/06 03:51:56;;;;;;;2.53;1.95;;;5.20;99.90;;;;;;4977318;28;20038;-35
2023/10/06 03:54:23;;;;;;;4.90;2.60;;;5.10;99.90;;;;;;4976850;28;20031;-33
2023/10/06 03:56:49;;;;;;;2.92;2.13;;;5.10;99.90;;;;;;4978724;28;20466;-37
2023/10/06 03:59:16;;;;;;;2.30;1.63;;;5.10;99.90;;;;;;4976879;28;20125;-34
2023/10/06 04:01:44;;;;;;;1.98;1.75;;;5.00;99.90;;;;;;4975810;28;22020;-34
2023/10/06 04:04:15;;;;;;;;;;;5.10;99.90;;;;;;4976056;28;20041;-34
2023/10/06 04:06:41;;;;;;;2.28;1.90;;;5.10;99.90;;;;;;4978673;28;19968;-32
2023/10/06 04:09:08;;;;;;;2.08;1.98;;;5.00;99.90;;;;;;4977371;28;20479;-32
2023/10/06 04:11:34;;;;;;;1.98;1.80;;;5.00;99.90;;;;;;4984046;28;20038;-32
2023/10/06 04:14:00;;;;;;;1.40;1.30;;;4.80;99.90;;;;;;4986905;28;20468;-34
2023/10/06 04:16:26;;;;;;;2.40;1.85;;;4.80;99.90;;;;;;4979829;28;20428;-37
2023/10/06 04:18:52;;;;;;;2.05;1.70;;;4.80;99.90;;;;;;4977616;28;20019;-33
2023/10/06 04:21:17;;;;;;;2.60;1.80;;;4.80;99.90;;;;;;4979227;28;20126;-34
2023/10/06 04:23:43;;;;;;;4.05;2.63;;;4.80;99.90;;;;;;4982541;28;20026;-33
2023/10/06 04:26:13;;;;;;;5.80;3.20;;;4.80;99.90;;;;;;4991123;28;20048;-32
2023/10/06 04:28:39;;;;;;;3.95;2.67;;;4.90;99.90;;;;;;4977138;28;20750;-35
2023/10/06 04:31:08;;;;;;;6.43;2.53;;;4.80;99.90;;;;;;4981691;28;20043;-40
2023/10/06 04:33:34;;;;;;;4.95;2.95;;;4.80;99.90;;;;;;4981428;28;20034;-37
2023/10/06 04:36:08;;;;;;;4.80;2.40;;;4.90;99.90;;;;;;4982519;28;20037;-39
2023/10/06 04:38:40;;;;;;;3.92;2.65;;;4.90;99.90;;;;;;4978786;28;20045;-40
2023/10/06 04:41:09;;;;;;;3.70;2.42;;;4.90;99.90;;;;;;4975176;28;20077;-37
2023/10/06 04:43:45;;;;;;;2.85;2.10;;;4.80;99.90;;;;;;4975257;28;20026;-41
2023/10/06 04:46:11;;;;;;;2.78;2.20;;;4.90;99.90;;;;;;4979106;28;20977;-39
2023/10/06 04:48:38;;;;;;;3.97;2.28;;;4.80;99.90;;;;;;4982604;28;20050;-40
2023/10/06 04:51:09;;;;;;;3.45;2.60;;;4.80;99.90;;;;;;4979233;28;20052;-41
2023/10/06 04:53:36;;;;;;;2.50;2.30;;;4.70;99.90;;;;;;4978673;28;20035;-32
2023/10/06 04:56:05;;;;;;;2.42;2.22;;;4.70;99.90;;;;;;4982563;28;20539;-39
2023/10/06 04:58:32;;;;;;;4.63;2.00;;;4.50;99.90;;;;;;4978526;28;20031;-39
2023/10/06 05:01:00;;;;;;;3.03;2.28;;;4.50;99.90;;;;;;4984790;28;20538;-39
2023/10/06 05:03:27;;;;;;;3.75;2.50;;;4.60;99.90;;;;;;4983097;28;20026;-34
2023/10/06 05:05:55;;;;;;;5.20;2.80;;;4.50;99.90;;;;;;4977618;28;20537;-40
2023/10/06 05:08:21;;;;;;;4.07;2.05;;;4.50;99.90;;;;;;4975565;28;20066;-37
2023/10/06 05:10:49;;;;;;;3.67;2.38;;;4.50;99.90;;;;;;4980121;28;20625;-38
2023/10/06 05:13:16;;;;;;;5.03;2.50;;;4.50;99.90;;;;;;4978442;28;20022;-38
2023/10/06 05:15:42;;;;;;;3.95;1.80;;;4.50;99.90;;;;;;4976044;28;20038;-39
2023/10/06 05:18:12;;;;;;;1.90;1.80;;;4.40;99.90;;;;;;4979331;28;20026;-39
2023/10/06 05:20:42;;;;;;;1.50;1.40;;;4.30;99.90;;;;;;4982221;28;20037;-36
2023/10/06 05:23:09;;;;;;;1.70;1.40;;;4.20;99.90;;;;;;4982754;28;20108;-39
2023/10/06 05:25:41;;;;;;;1.40;1.30;;;4.20;99.90;;;;;;4981321;28;20027;-35
2023/10/06 05:28:10;;;;;;;2.28;1.83;;;4.30;99.90;;;;;;4978511;28;20031;-39
2023/10/06 05:30:37;;;;;;;3.33;2.08;;;4.30;99.90;;;;;;4980933;28;20508;-40
2023/10/06 05:33:05;;;;;;;3.70;2.10;;;4.40;99.90;;;;;;4978230;28;20049;-40
2023/10/06 05:35:36;;;;;;;;;;;4.40;99.90;;;;;;4980245;28;20417;-38
2023/10/06 05:38:03;;;;;;;2.88;2.25;;;4.40;99.90;;;;;;4981400;28;20013;-38
2023/10/06 05:40:29;;;;;;;5.05;3.03;;;4.40;99.90;;;;;;4977832;28;20476;-33
2023/10/06 05:42:55;;;;;;;2.30;2.10;;;4.40;99.90;;;;;;4967454;28;20038;-38
2023/10/06 05:45:21;;;;;;;2.60;1.98;;;4.50;99.90;;;;;;4983086;28;20044;-41
2023/10/06 05:47:48;;;;;;;2.03;1.83;;;4.40;99.90;;;;;;4977364;28;20126;-38
2023/10/06 05:50:29;;;;;;;2.63;2.00;;;4.40;99.90;;;;;;4973772;28;20689;-39
2023/10/06 05:53:01;;;;;;;2.17;1.95;;;4.30;99.90;;;;;;4981344;28;20038;-41
2023/10/06 05:55:31;;;;;;;3.85;1.95;;;4.30;99.90;;;;;;4982579;28;20057;-37
2023/10/06 05:58:00;;;;;;;2.65;2.22;;;4.40;99.90;;;;;;4982161;28;20052;-40
2023/10/06 06:00:31;;;;;;;7.05;2.75;;;4.40;99.90;;;;;;4979106;28;20117;-34
2023/10/06 06:02:58;;;;;;;6.30;2.95;;;4.40;99.90;;;;;;4982514;28;20046;-41
2023/10/06 06:05:29;;;;;;;2.47;1.98;;;4.40;99.90;;;;;;4989352;28;20880;-39
2023/10/06 06:08:03;;;;;;;1.83;1.60;;;4.30;99.90;;;;;;4984250;28;20065;-39
2023/10/06 06:10:29;;;;;;;2.67;2.22;;;4.30;99.90;;;;;;4979969;28;20104;-37
2023/10/06 06:13:00;;;;;;;2.13;1.90;;;4.30;99.90;;;;;;4987463;28;20065;-39
2023/10/06 06:15:26;;;;;;;5.82;2.05;;;4.30;99.90;;;;;;4981815;28;20545;-40
2023/10/06 06:17:58;;;;;;;2.95;2.10;;;4.40;99.90;;;;;;4987438;28;20110;-40
2023/10/06 06:20:27;;;;;;;2.65;1.67;;;4.50;99.90;;;;;;4983050;28;20116;-40
2023/10/06 06:22:53;;;;;;;1.80;1.50;;;4.50;99.90;;;;;;4992217;28;20114;-40
2023/10/06 06:25:29;;;;;;;2.78;1.98;;;4.60;99.90;;;;;;4981891;28;20054;-38
2023/10/06 06:27:59;;;;;;;4.75;2.47;;;4.50;99.90;;;;;;4982548;28;20081;-38
2023/10/06 06:30:25;;;;;;;4.97;2.80;;;4.50;99.90;;;;;;4983649;28;20046;-37
2023/10/06 06:32:55;;;;;;;2.83;2.20;;;4.60;99.90;;;;;;4980501;28;20118;-39
2023/10/06 06:35:22;;;;;;;2.67;1.98;;;4.60;99.90;;;;;;4982338;28;20027;-40
2023/10/06 06:37:56;;;;;;;2.00;1.90;;;4.50;99.90;;;;;;4982289;28;20026;-39
2023/10/06 06:40:22;;;;;;;3.30;2.17;;;4.50;99.90;;;;;;4982892;28;20030;-41
2023/10/06 06:42:49;;;;;;;2.67;2.47;;;4.60;99.90;;;;;;4981317;28;20046;-37
2023/10/06 06:45:15;;;;;;;3.35;2.85;;;4.70;99.90;;;;;;4987576;28;20489;-41
2023/10/06 06:47:44;;;;;;;3.92;2.70;;;4.80;99.90;;;;;;4989470;28;20117;-38
2023/10/06 06:50:13;;;;;;;4.40;3.40;;;4.90;99.90;;;;;;4981201;28;20391;-41
2023/10/06 06:52:45;;;;;;;6.00;3.33;;;5.00;99.90;;;;;;4988029;28;20022;-39
2023/10/06 06:55:14;;;;;;;5.85;2.92;;;5.10;99.90;;;;;;4983385;28;20423;-33
2023/10/06 06:58:05;;;;;;;4.13;3.65;;;5.20;99.90;;;;;;4985259;28;20025;-34
2023/10/06 07:00:30;;;;;;;5.50;3.67;;;5.20;99.90;;;;;;4989096;28;20028;-34
2023/10/06 07:02:56;;;;;;;6.97;3.53;;;5.40;99.90;;;;;;4983978;28;20027;-34
2023/10/06 07:05:23;;;;;;;5.97;3.22;;;5.60;99.90;;;;;;4981999;28;20034;-34
2023/10/06 07:07:52;;;;;;;6.18;3.55;;;5.80;99.90;;;;;;4984561;28;20536;-33
2023/10/06 07:10:20;;;;;;;6.25;3.70;;;5.90;99.90;;;;;;4983880;28;20054;-33
2023/10/06 07:12:50;;;;;;;4.97;3.85;;;6.10;99.90;;;;;;4984549;28;20089;-35
2023/10/06 07:15:17;;;;;;;6.10;3.95;;;6.20;99.90;;;;;;4981838;28;20034;-35
2023/10/06 07:17:54;;;;;;;10.20;4.50;;;6.20;99.90;;;;;;4976389;28;20503;-34
2023/10/06 07:20:30;;;;;;;6.68;4.07;;;6.30;99.90;;;;;;4981644;28;20496;-32
2023/10/06 07:23:00;;;;;;;9.27;5.05;;;6.40;99.90;;;;;;4979631;28;20034;-32
2023/10/06 07:25:26;;;;;;;7.70;4.22;;;6.50;99.90;;;;;;4981065;28;20040;-32
2023/10/06 07:27:57;;;;;;;6.40;4.40;;;6.50;99.90;;;;;;4987286;28;20033;-32
2023/10/06 07:30:25;;;;;;;6.68;4.57;;;6.50;99.90;;;;;;4986459;28;20015;-32
2023/10/06 07:32:52;;;;;;;13.02;5.22;;;6.50;99.90;;;;;;4983152;28;20401;-31
2023/10/06 07:35:20;;;;;;;9.00;5.60;;;6.60;99.90;;;;;;4973038;28;20612;-31
2023/10/06 07:37:48;;;;;;;8.85;5.30;;;6.90;99.90;;;;;;4988178;28;20026;-32
2023/10/06 07:40:18;;;;;;;9.43;5.10;;;7.10;99.90;;;;;;4979392;28;20039;-32
2023/10/06 07:42:51;;;;;;;11.63;5.82;;;7.20;99.90;;;;;;4990757;28;20452;-39
2023/10/06 07:45:18;;;;;;;8.40;5.53;;;7.50;99.90;;;;;;4973960;28;20034;-36
2023/10/06 07:47:44;;;;;;;11.00;5.85;;;7.50;99.90;;;;;;4971341;28;20061;-41
2023/10/06 07:50:13;;;;;;;8.95;6.50;;;7.70;99.90;;;;;;4983032;28;20037;-41
2023/10/06 07:52:42;;;;;;;11.68;6.80;;;7.70;99.90;;;;;;4985817;28;20388;-40
2023/10/06 07:55:10;;;;;;;13.90;6.78;;;7.90;99.90;;;;;;4981773;28;20835;-38
2023/10/06 07:57:41;;;;;;;9.45;6.28;;;8.20;99.90;;;;;;4987475;28;20649;-41
2023/10/06 08:00:10;;;;;;;8.40;5.65;;;8.40;99.90;;;;;;4982981;28;20105;-39
2023/10/06 08:02:39;;;;;;;12.10;6.65;;;8.50;99.90;;;;;;4988468;28;20038;-31
2023/10/06 08:05:11;;;;;;;11.20;7.18;;;8.80;99.90;;;;;;4984262;28;20026;-30
2023/10/06 08:07:38;;;;;;;13.77;7.68;;;9.00;99.90;;;;;;4985006;28;20035;-30
2023/10/06 08:10:05;;;;;;;13.25;6.93;;;9.20;99.90;;;;;;4989315;28;20058;-31
2023/10/06 08:12:33;;;;;;;11.15;6.80;;;9.40;99.90;;;;;;4981418;28;20034;-30
2023/10/06 08:15:09;;;;;;;11.35;6.80;;;9.50;99.90;;;;;;4981178;28;20029;-29
2023/10/06 08:17:35;;;;;;;11.05;5.82;;;9.70;99.90;;;;;;4983808;28;20116;-31
2023/10/06 08:20:05;;;;;;;12.15;6.45;;;9.80;99.90;;;;;;4981088;28;20037;-30
2023/10/06 08:22:33;;;;;;;11.40;6.40;;;10.00;99.90;;;;;;4979129;28;20484;-32
2023/10/06 08:25:05;;;;;;;;;;;10.30;99.90;;;;;;4979459;28;20036;-29
2023/10/06 08:27:35;;;;;;;8.50;6.13;;;10.50;99.90;;;;;;4979051;28;19909;-33
2023/10/06 08:30:02;;;;;;;10.77;6.50;;;10.60;99.90;;;;;;4989405;28;20456;-30
2023/10/06 08:32:28;;;;;;;12.13;7.10;;;10.70;99.90;;;;;;4986646;28;20034;-33
2023/10/06 08:34:53;;;;;;;12.48;6.75;;;11.00;99.90;;;;;;4984071;28;20024;-30
2023/10/06 08:37:20;;;;;;;13.48;6.60;;;11.10;99.90;;;;;;4988676;28;20030;-30
2023/10/06 08:39:46;;;;;;;10.70;6.15;;;11.30;99.90;;;;;;4984412;28;20031;-30
2023/10/06 08:42:17;;;;;;;12.13;6.60;;;11.50;99.90;;;;;;4979397;28;20030;-35
2023/10/06 08:44:47;;;;;;;8.63;6.50;;;11.70;99.90;;;;;;4984877;28;20469;-33
2023/10/06 08:47:18;;;;;;;12.55;6.72;;;11.80;99.90;;;;;;4977450;28;20487;-31
2023/10/06 08:49:46;;;;;;;9.00;5.68;;;12.00;99.90;;;;;;4987733;28;20026;-31
2023/10/06 08:52:13;;;;;;;11.52;5.70;;;12.00;99.90;;;;;;4992011;28;20042;-38
2023/10/06 08:54:42;;;;;;;11.07;6.50;;;12.20;99.90;;;;;;4983412;28;20027;-35
2023/10/06 08:57:11;;;;;;;11.68;6.00;;;12.30;99.90;;;;;;4982194;28;20034;-40
2023/10/06 08:59:37;;;;;;;12.48;5.90;;;12.40;99.90;;;;;;4989297;28;20460;-37
2023/10/06 09:02:03;;;;;;;11.30;6.05;;;12.50;99.90;;;;;;4988888;28;20042;-40
2023/10/06 09:04:38;;;;;;;12.52;6.03;;;12.70;99.90;;;;;;4986990;28;20558;-39
2023/10/06 09:07:17;;;;;;;9.15;5.75;;;13.00;99.90;;;;;;4981130;28;20062;-40
2023/10/06 09:09:43;;;;;;;8.10;5.28;;;13.20;99.90;;;;;;4992068;28;20096;-39
2023/10/06 09:12:25;;;;;;;10.80;5.28;;;13.30;99.90;;;;;;4981058;28;20047;-40
2023/10/06 09:14:54;;;;;;;7.80;5.03;;;13.50;99.90;;;;;;4989035;28;20056;-41
2023/10/06 09:17:33;;;;;;;9.23;5.35;;;13.70;99.90;;;;;;4981501;28;20023;-40
2023/10/06 09:19:59;;;;;;;10.10;5.50;;;13.90;99.90;;;;;;4984501;28;20064;-40
2023/10/06 09:22:29;;;;;;;10.98;5.80;;;14.10;99.90;;;;;;4987397;28;20482;-38
2023/10/06 09:24:59;;;;;;;8.85;5.15;;;14.20;99.90;;;;;;4980876;28;20105;-39
2023/10/06 09:27:25;;;;;;;7.28;5.68;;;14.10;99.90;;;;;;4981496;28;20118;-40
2023/10/06 09:30:07;;;;;;;10.27;5.80;;;14.20;99.90;;;;;;4981648;28;20110;-40
2023/10/06 09:32:34;;;;;;;9.40;5.50;;;14.40;99.90;;;;;;4984255;28;20129;-39
2023/10/06 09:35:17;;;;;;;11.00;5.97;;;14.50;99.90;;;;;;4987260;28;20049;-39
2023/10/06 09:37:42;;;;;;;9.45;5.40;;;14.60;99.90;;;;;;4973963;28;20033;-39
2023/10/06 09:40:19;;;;;;;7.47;4.53;;;14.70;99.90;;;;;;4977691;28;20027;-40
2023/10/06 09:42:47;;;;;;;9.38;4.90;;;14.90;99.90;;;;;;4981764;28;20041;-42
2023/10/06 09:45:21;;;;;;;8.40;4.85;;;15.00;99.90;;;;;;4986621;28;20026;-39
2023/10/06 09:47:56;;;;;;;7.60;4.93;;;15.10;99.90;;;;;;4986047;28;20503;-40
2023/10/06 09:50:22;;;;;;;8.15;5.30;;;15.20;99.90;;;;;;4978062;28;20023;-39
2023/10/06 09:52:50;;;;;;;8.73;5.38;;;15.10;99.90;;;;;;4980541;28;20128;-39
2023/10/06 09:55:20;;;;;;;7.90;5.37;;;15.30;99.90;;;;;;4983560;28;20030;-39
2023/10/06 09:57:47;;;;;;;7.05;4.75;;;15.40;99.90;;;;;;4989077;28;20261;-40
2023/10/06 10:00:16;;;;;;;10.48;5.40;;;15.40;99.90;;;;;;4984480;28;20029;-39
2023/10/06 10:02:51;;;;;;;7.43;4.95;;;15.60;99.90;;;;;;4982327;28;20042;-35
2023/10/06 10:05:20;;;;;;;7.78;4.72;;;15.70;99.90;;;;;;4983293;28;20034;-32
2023/10/06 10:07:48;;;;;;;7.22;4.25;;;15.90;99.90;;;;;;4988857;28;20615;-34
2023/10/06 10:10:16;;;;;;;13.65;5.53;;;16.10;99.90;;;;;;4990212;28;20073;-32
2023/10/06 10:13:07;;;;;;;10.93;5.25;;;15.90;99.90;;;;;;4980147;28;20034;-36
2023/10/06 10:15:51;;;;;;;8.23;4.97;;;16.00;99.90;;;;;;4999185;28;20038;-32
2023/10/06 10:18:34;;;;;;;9.43;5.13;;;16.20;99.90;;;;;;4981086;28;20029;-33
2023/10/06 10:21:01;;;;;;;9.85;5.30;;;16.50;99.90;;;;;;4982723;28;20584;-36
2023/10/06 10:23:30;;;;;;;10.90;5.00;;;16.80;99.90;;;;;;4989692;28;20681;-35
2023/10/06 10:26:14;;;;;;;10.00;5.22;;;16.90;99.90;;;;;;4989278;28;20467;-31
2023/10/06 10:28:39;;;;;;;7.63;4.57;;;17.00;99.90;;;;;;4982579;28;20045;-34
2023/10/06 10:31:05;;;;;;;8.07;4.93;;;17.00;99.90;;;;;;4977555;28;20043;-30
2023/10/06 10:33:37;;;;;;;9.45;4.82;;;17.00;99.90;;;;;;4983317;28;20104;-30
2023/10/06 10:36:16;;;;;;;8.77;5.00;;;16.90;99.90;;;;;;4988065;28;20034;-30
2023/10/06 10:38:42;;;;;;;11.68;4.70;;;16.90;99.90;;;;;;4982843;28;20045;-33
2023/10/06 10:41:09;;;;;;;7.10;4.38;;;17.00;99.90;;;;;;4985593;28;20064;-30
2023/10/06 10:43:40;;;;;;;9.60;5.15;;;17.00;99.90;;;;;;4983184;28;20105;-30
2023/10/06 10:46:08;;;;;;;11.48;4.78;;;17.20;99.90;;;;;;4989152;28;20438;-36
2023/10/06 10:48:47;;;;;;;6.75;4.25;;;17.40;99.90;;;;;;4983099;28;20031;-33
2023/10/06 10:51:14;;;;;;;7.07;4.10;;;17.30;99.90;;;;;;4984442;28;20038;-32
2023/10/06 10:53:43;;;;;;;6.95;4.10;;;17.40;99.90;;;;;;4984975;28;20026;-31
2023/10/06 10:56:13;;;;;;;7.43;4.40;;;17.50;99.90;;;;;;4989621;28;20077;-32
2023/10/06 10:58:42;;;;;;;9.48;4.95;;;17.30;99.90;;;;;;4991040;28;20058;-36
2023/10/06 11:01:35;;;;;;;8.98;5.10;;;17.30;99.90;;;;;;4987345;28;20041;-30
2023/10/06 11:04:14;;;;;;;8.80;4.15;;;17.20;99.90;;;;;;4983308;28;20041;-31
2023/10/06 11:06:40;;;;;;;7.47;4.22;;;17.30;99.90;;;;;;4980273;28;20046;-36
2023/10/06 11:09:25;;;;;;;7.90;4.07;;;17.30;99.90;;;;;;4983708;28;20031;-30
2023/10/06 11:11:55;;;;;;;6.80;3.45;;;17.20;99.90;;;;;;4982192;28;20488;-31
2023/10/06 11:14:22;;;;;;;10.10;4.00;;;17.30;99.90;;;;;;4982166;28;20396;-30
2023/10/06 11:16:47;;;;;;;5.97;3.83;;;17.30;99.90;;;;;;4983373;28;20080;-32
2023/10/06 11:19:15;;;;;;;7.63;3.55;;;17.20;99.90;;;;;;4976982;28;20030;-32
2023/10/06 11:21:44;;;;;;;7.30;3.80;;;17.10;99.90;;;;;;4980732;28;20038;-34
2023/10/06 11:24:10;;;;;;;7.90;3.22;;;17.10;99.90;;;;;;4985500;28;20300;-32
2023/10/06 11:26:36;;;;;;;6.97;3.78;;;17.20;99.90;;;;;;4987995;28;20027;-31
2023/10/06 11:29:02;;;;;;;7.25;3.50;;;17.50;99.90;;;;;;4985682;28;20134;-30
2023/10/06 11:31:28;;;;;;;6.18;3.45;;;17.50;99.90;;;;;;4982013;28;20166;-30
2023/10/06 11:33:55;;;;;;;7.07;3.85;;;17.50;99.90;;;;;;4982223;28;20109;-30
2023/10/06 11:36:21;;;;;;;6.30;3.65;;;17.50;99.90;;;;;;4979002;28;20026;-30
2023/10/06 11:38:48;;;;;;;4.63;2.92;;;17.50;99.90;;;;;;4983033;28;20080;-31
2023/10/06 11:41:27;;;;;;;4.20;2.35;;;17.60;99.90;;;;;;4976941;28;20114;-29
2023/10/06 11:43:58;;;;;;;6.78;3.03;;;17.60;99.90;;;;;;4975900;28;20034;-31
2023/10/06 11:46:23;;;;;;;6.13;3.17;;;17.60;99.90;;;;;;4981370;28;20104;-32
2023/10/06 11:48:52;;;;;;;4.47;2.90;;;17.60;99.90;;;;;;4976556;28;20038;-38
2023/10/06 11:51:18;;;;;;;4.38;2.78;;;17.60;99.90;;;;;;4981141;28;20108;-32
2023/10/06 11:53:44;;;;;;;6.45;3.00;;;17.60;99.90;;;;;;4976423;28;20030;-30
2023/10/06 11:56:12;;;;;;;5.80;3.30;;;17.80;99.90;;;;;;4987587;28;20538;-30
2023/10/06 11:58:39;;;;;;;4.40;2.85;;;17.80;99.90;;;;;;4988904;28;20030;-31
2023/10/06 12:01:06;;;;;;;5.35;3.17;;;17.90;99.90;;;;;;4980660;28;20030;-29
2023/10/06 12:03:44;;;;;;;5.28;2.90;;;17.90;99.90;;;;;;4986424;28;20142;-29
2023/10/06 12:06:13;;;;;;;7.80;3.03;;;18.00;99.90;;;;;;4977567;28;20034;-30
2023/10/06 12:08:45;;;;;;;7.82;3.00;;;18.00;99.90;;;;;;4988100;28;20510;-33
2023/10/06 12:11:13;;;;;;;5.82;2.80;;;18.00;99.90;;;;;;4977700;28;20522;-30
2023/10/06 12:13:41;;;;;;;7.13;3.13;;;18.00;99.90;;;;;;4984166;28;20034;-31
2023/10/06 12:16:12;;;;;;;5.88;2.78;;;17.90;99.90;;;;;;4983016;28;20030;-29
2023/10/06 12:18:38;;;;;;;6.10;3.17;;;18.00;99.90;;;;;;4988307;28;20080;-30
2023/10/06 12:21:06;;;;;;;5.20;2.92;;;18.10;99.90;;;;;;4970547;28;20038;-40
2023/10/06 12:23:32;;;;;;;5.90;3.83;;;18.20;99.90;;;;;;4988754;28;20499;-41
2023/10/06 12:25:58;;;;;;;4.70;3.17;;;18.10;99.90;;;;;;4981573;28;20015;-37
2023/10/06 12:28:25;;;;;;;5.20;3.10;;;18.10;99.90;;;;;;4992139;28;20452;-39
2023/10/06 12:30:52;;;;;;;6.47;3.30;;;18.10;99.90;;;;;;4978576;28;20392;-38
2023/10/06 12:33:18;;;;;;;7.20;3.53;;;18.10;99.90;;;;;;4990803;28;20578;-37
2023/10/06 12:35:43;;;;;;;6.38;3.63;;;18.10;99.90;;;;;;4977794;28;20133;-39
2023/10/06 12:38:09;;;;;;;6.35;3.42;;;18.10;99.90;;;;;;4984614;28;20030;-39
2023/10/06 12:40:38;;;;;;;7.55;3.40;;;18.10;99.90;;;;;;4985328;28;20079;-38
2023/10/06 12:43:03;;;;;;;6.82;4.22;;;18.10;99.90;;;;;;4986640;28;20479;-34
2023/10/06 12:45:29;;;;;;;6.82;4.00;;;18.10;99.90;;;;;;4989298;28;20038;-41
2023/10/06 12:47:54;;;;;;;5.97;3.53;;;18.20;99.90;;;;;;4991525;28;20519;-41
2023/10/06 12:50:21;;;;;;;6.38;3.95;;;18.20;99.90;;;;;;4987086;28;20031;-39
2023/10/06 12:52:51;;;;;;;7.82;4.13;;;18.20;99.90;;;;;;4981778;28;20027;-38
2023/10/06 12:55:21;;;;;;;6.75;3.92;;;18.30;99.90;;;;;;4982609;28;20593;-40
2023/10/06 12:57:48;;;;;;;8.45;4.20;;;18.30;99.90;;;;;;4983654;28;20031;-39
2023/10/06 13:00:14;;;;;;;6.40;4.38;;;18.30;99.90;;;;;;4982450;28;20484;-41
2023/10/06 13:02:41;;;;;;;5.85;3.92;;;18.40;99.90;;;;;;4982480;28;20072;-33
2023/10/06 13:05:16;;;;;;;6.43;3.38;;;18.50;99.90;;;;;;4978115;28;20083;-33
2023/10/06 13:07:43;;;;;;;4.95;3.47;;;18.50;99.90;;;;;;4988358;28;20030;-40